Time;durP1;ratioP1;P1;durP2;ratioP2;P2;SDS_P1;SDS_P2;PMS_P1;PMS_P2;Temp;Humidity;BMP_temperature;BMP_pressure;BME280_temperature;BME280_humidity;BME280_pressure;Samples;Min_cycle;Max_cycle;Signal;HPM_P1;HPM_P2
2022/07/27 00:01:02;;;;;;;2.85;1.10;;;;;;;24.24;45.76;100562.44;5060528;28;20740;-65
2022/07/27 00:03:30;;;;;;;1.92;1.20;;;;;;;24.20;45.57;100556.63;5057598;28;20285;-65
2022/07/27 00:05:58;;;;;;;3.05;1.40;;;;;;;24.18;45.38;100561.47;5058257;28;20227;-65
2022/07/27 00:08:26;;;;;;;2.65;1.30;;;;;;;24.13;45.48;100566.75;5060907;28;20207;-65
2022/07/27 00:10:54;;;;;;;2.35;1.20;;;;;;;24.13;45.34;100561.34;5058761;28;20295;-65
2022/07/27 00:13:21;;;;;;;2.63;1.35;;;;;;;24.10;45.57;100566.41;5059784;28;20690;-63
2022/07/27 00:15:51;;;;;;;3.90;1.20;;;;;;;24.00;46.40;100565.09;5064547;28;20598;-63
2022/07/27 00:18:19;;;;;;;1.90;1.13;;;;;;;23.99;46.31;100559.91;5058390;28;21803;-63
2022/07/27 00:20:47;;;;;;;5.80;1.20;;;;;;;23.96;46.01;100561.19;5056692;28;20298;-63
2022/07/27 00:23:15;;;;;;;2.80;1.30;;;;;;;23.96;46.27;100555.78;5058845;28;20216;-63
2022/07/27 00:25:43;;;;;;;2.53;1.10;;;;;;;23.96;46.25;100563.09;5059381;28;20230;-63
2022/07/27 00:28:11;;;;;;;2.35;1.20;;;;;;;23.95;46.12;100556.84;5060563;28;20292;-63
2022/07/27 00:30:38;;;;;;;9.15;1.20;;;;;;;23.96;46.01;100557.66;5061754;28;20294;-63
2022/07/27 00:33:08;;;;;;;2.25;1.30;;;;;;;24.02;45.74;100560.25;5055213;28;20228;-63
2022/07/27 00:35:35;;;;;;;3.35;1.40;;;;;;;24.04;45.59;100556.50;5060544;28;20196;-63
2022/07/27 00:38:04;;;;;;;2.15;1.20;;;;;;;24.01;45.71;100560.50;5059429;28;20252;-63
2022/07/27 00:40:31;;;;;;;3.03;1.17;;;;;;;23.97;45.51;100562.03;5057275;28;20294;-63
2022/07/27 00:42:59;;;;;;;1.58;1.25;;;;;;;23.96;45.48;100560.38;5055988;28;20215;-63
2022/07/27 00:45:27;;;;;;;2.10;1.00;;;;;;;;;;5060900;28;20231;-63
2022/07/27 00:47:54;;;;;;;3.03;1.40;;;;;;;23.94;45.62;100562.47;5058366;28;20207;-63
2022/07/27 00:50:24;;;;;;;2.72;1.23;;;;;;;23.92;45.56;100560.00;5058934;28;20212;-63
2022/07/27 00:52:52;;;;;;;2.00;1.20;;;;;;;23.92;45.44;100570.03;5057312;28;20878;-63
2022/07/27 00:55:20;;;;;;;2.95;1.05;;;;;;;23.89;45.57;100559.66;5058282;28;20658;-65
2022/07/27 00:57:47;;;;;;;3.22;1.15;;;;;;;23.89;45.57;100567.78;5062221;28;20214;-64
2022/07/27 01:00:26;;;;;;;2.58;1.30;;;;;;;23.89;45.60;100570.50;5056124;28;20223;-64
2022/07/27 01:02:54;;;;;;;1.90;1.10;;;;;;;23.89;45.43;100570.50;5061150;28;20200;-64
2022/07/27 01:05:25;;;;;;;3.58;1.25;;;;;;;23.81;45.62;100557.31;5064507;28;20231;-64
2022/07/27 01:08:05;;;;;;;4.35;1.73;;;;;;;23.76;45.66;100570.69;5061755;28;20223;-64
2022/07/27 01:10:33;;;;;;;2.05;1.30;;;;;;;23.76;45.68;100566.09;5061546;28;20454;-62
2022/07/27 01:13:02;;;;;;;2.25;1.10;;;;;;;23.77;45.75;100573.16;5059104;28;20228;-63
2022/07/27 01:15:30;;;;;;;3.78;1.27;;;;;;;23.79;45.75;100570.25;5064387;28;20203;-63
2022/07/27 01:18:04;;;;;;;2.42;1.33;;;;;;;23.75;45.55;100569.06;5062827;28;20204;-63
2022/07/27 01:20:36;;;;;;;1.67;1.02;;;;;;;23.73;45.85;100572.00;5060257;28;20222;-63
2022/07/27 01:23:05;;;;;;;2.88;1.70;;;;;;;23.69;45.62;100569.97;5061092;28;20207;-63
2022/07/27 01:25:33;;;;;;;3.08;1.42;;;;;;;23.61;46.05;100558.44;5067489;28;20269;-63
2022/07/27 01:28:01;;;;;;;2.00;1.33;;;;;;;23.63;45.75;100560.91;5063377;28;20223;-63
2022/07/27 01:30:30;;;;;;;5.07;1.80;;;;;;;23.60;46.09;100551.34;5057780;28;20335;-63
2022/07/27 01:33:01;;;;;;;3.28;1.10;;;;;;;23.61;46.04;100546.78;5056659;28;20241;-63
2022/07/27 01:35:30;;;;;;;2.58;1.20;;;;;;;23.59;46.07;100555.13;5061568;28;20215;-63
2022/07/27 01:37:58;;;;;;;1.90;1.00;;;;;;;23.58;46.23;100558.06;5059885;28;20213;-63
2022/07/27 01:40:27;;;;;;;5.90;1.63;;;;;;;23.65;46.29;100566.09;5062608;28;20208;-63
2022/07/27 01:42:55;;;;;;;3.38;1.20;;;;;;;23.71;45.79;100570.56;5060651;28;20203;-63
2022/07/27 01:45:23;;;;;;;4.78;1.85;;;;;;;23.68;45.86;100584.56;5062792;28;20207;-63
2022/07/27 01:47:51;;;;;;;1.48;1.13;;;;;;;23.70;45.83;100583.28;5060455;28;20598;-63
2022/07/27 01:50:19;;;;;;;2.13;1.35;;;;;;;23.63;46.29;100577.16;5060472;28;20218;-63
2022/07/27 01:52:47;;;;;;;6.20;1.33;;;;;;;23.54;46.36;100562.28;5062939;28;20255;-62
2022/07/27 01:55:15;;;;;;;3.97;1.20;;;;;;;23.54;46.22;100563.13;5061290;28;20211;-63
2022/07/27 01:57:44;;;;;;;1.50;1.00;;;;;;;23.58;46.10;100564.28;5061999;28;20887;-63
2022/07/27 02:00:13;;;;;;;2.47;1.10;;;;;;;23.59;46.17;100568.66;5061592;28;20659;-63
2022/07/27 02:02:41;;;;;;;2.15;1.20;;;;;;;23.54;46.18;100576.66;5062268;28;20368;-62
2022/07/27 02:05:11;;;;;;;1.73;1.00;;;;;;;23.57;46.02;100562.63;5062959;28;20238;-63
2022/07/27 02:07:39;;;;;;;1.63;1.02;;;;;;;23.57;46.18;100557.22;5059654;28;20239;-63
2022/07/27 02:10:08;;;;;;;1.65;1.30;;;;;;;23.58;46.13;100563.47;5058815;28;20233;-63
2022/07/27 02:12:36;;;;;;;1.73;0.90;;;;;;;23.57;46.54;100561.84;5059882;28;20268;-64
2022/07/27 02:15:10;;;;;;;1.95;1.00;;;;;;;23.55;46.50;100558.53;5059950;28;20207;-64
2022/07/27 02:17:43;;;;;;;4.18;0.95;;;;;;;23.50;46.71;100561.91;5060575;28;20222;-63
2022/07/27 02:20:13;;;;;;;1.55;0.88;;;;;;;23.49;46.74;100560.25;5062387;28;20609;-63
2022/07/27 02:22:42;;;;;;;2.08;1.00;;;;;;;23.46;46.91;100562.59;5059079;28;20807;-63
2022/07/27 02:25:11;;;;;;;4.80;1.10;;;;;;;23.44;47.22;100557.41;5060747;28;20203;-63
2022/07/27 02:27:39;;;;;;;2.78;1.10;;;;;;;23.45;47.27;100556.34;5064374;28;20227;-63
2022/07/27 02:30:10;;;;;;;3.08;1.00;;;;;;;23.43;47.18;100550.34;5059772;28;20217;-66
2022/07/27 02:32:39;;;;;;;2.45;1.00;;;;;;;23.45;47.27;100553.66;5058757;28;20218;-64
2022/07/27 02:35:11;;;;;;;3.58;0.80;;;;;;;23.48;47.29;100555.91;5059172;28;20261;-66
2022/07/27 02:37:47;;;;;;;2.03;0.80;;;;;;;23.49;47.40;100559.44;5061175;28;20194;-65
2022/07/27 02:40:16;;;;;;;1.83;0.80;;;;;;;23.49;47.36;100548.59;5056496;28;20597;-65
2022/07/27 02:42:45;;;;;;;2.47;0.97;;;;;;;23.52;46.85;100545.44;5061027;28;20212;-65
2022/07/27 02:45:14;;;;;;;1.83;0.77;;;;;;;23.52;47.47;100548.97;5059996;28;20200;-66
2022/07/27 02:47:42;;;;;;;3.55;0.90;;;;;;;23.47;47.54;100546.13;5058911;28;20226;-66
2022/07/27 02:50:11;;;;;;;2.87;1.00;;;;;;;23.41;47.72;100544.31;5063736;28;20293;-65
2022/07/27 02:52:39;;;;;;;2.97;0.73;;;;;;;23.42;47.65;100547.84;5058935;28;20194;-65
2022/07/27 02:55:08;;;;;;;2.63;0.80;;;;;;;23.42;47.80;100554.09;5063239;28;20211;-66
2022/07/27 02:57:39;;;;;;;2.17;1.03;;;;;;;23.42;48.12;100558.69;5059417;28;20200;-66
2022/07/27 03:00:10;;;;;;;3.43;1.10;;;;;;;23.37;48.32;100555.84;5058924;28;20723;-66
2022/07/27 03:02:39;;;;;;;2.63;1.13;;;;;;;23.34;48.43;100553.59;5057167;28;20239;-66
2022/07/27 03:05:08;;;;;;;1.20;0.70;;;;;;;23.31;48.51;100543.25;5058621;28;20210;-66
2022/07/27 03:07:37;;;;;;;1.73;0.70;;;;;;;23.33;48.50;100549.22;5063165;28;20310;-66
2022/07/27 03:10:06;;;;;;;4.82;0.93;;;;;;;23.36;48.66;100549.59;5065983;28;20303;-66
2022/07/27 03:12:33;;;;;;;2.50;0.80;;;;;;;23.36;48.86;100549.59;5053962;28;20222;-66
2022/07/27 03:15:01;;;;;;;1.23;0.70;;;;;;;23.29;48.83;100551.59;5062921;28;20211;-66
2022/07/27 03:17:29;;;;;;;1.47;0.70;;;;;;;23.28;48.90;100552.63;5057713;28;20231;-66
2022/07/27 03:19:58;;;;;;;2.20;0.90;;;;;;;23.18;49.13;100555.06;5060569;28;20334;-66
2022/07/27 03:22:29;;;;;;;3.50;0.90;;;;;;;23.13;49.18;100557.63;5060246;28;20212;-66
2022/07/27 03:24:57;;;;;;;2.93;0.90;;;;;;;23.16;48.99;100549.03;5060682;28;20215;-65
2022/07/27 03:27:25;;;;;;;1.47;0.70;;;;;;;23.15;49.08;100555.50;5061439;28;20227;-66
2022/07/27 03:29:53;;;;;;;2.80;0.80;;;;;;;23.17;49.45;100564.22;5060960;28;20204;-65
2022/07/27 03:32:21;;;;;;;4.50;1.23;;;;;;;23.19;49.43;100571.06;5060573;28;20328;-65
2022/07/27 03:34:48;;;;;;;0.80;0.60;;;;;;;23.19;49.48;100564.84;5058418;28;20203;-66
2022/07/27 03:37:18;;;;;;;3.50;0.73;;;;;;;23.16;49.76;100562.56;5058941;28;20205;-66
2022/07/27 03:39:46;;;;;;;1.63;0.70;;;;;;;23.08;49.79;100573.69;5062579;28;20207;-66
2022/07/27 03:42:14;;;;;;;2.80;0.80;;;;;;;23.06;49.65;100560.41;5062973;28;20592;-67
2022/07/27 03:44:42;;;;;;;2.50;0.70;;;;;;;23.07;49.85;100566.63;5060414;28;20306;-66
2022/07/27 03:47:10;;;;;;;2.20;0.90;;;;;;;23.10;49.61;100569.72;5064974;28;20621;-64
2022/07/27 03:49:37;;;;;;;1.93;0.80;;;;;;;23.12;49.93;100572.22;5060236;28;20211;-65
2022/07/27 03:52:06;;;;;;;1.67;0.70;;;;;;;23.11;49.74;100575.97;5060778;28;20203;-65
2022/07/27 03:54:35;;;;;;;2.37;0.90;;;;;;;23.12;50.09;100575.75;5053700;28;20240;-65
2022/07/27 03:57:02;;;;;;;2.60;0.80;;;;;;;23.11;49.92;100578.66;5048524;28;20213;-65
2022/07/27 03:59:30;;;;;;;2.83;0.93;;;;;;;23.10;49.94;100577.84;5064317;28;20208;-65
2022/07/27 04:01:58;;;;;;;2.47;0.97;;;;;;;23.06;50.46;100581.22;5062608;28;20342;-65
2022/07/27 04:04:26;;;;;;;2.60;0.90;;;;;;;23.06;50.23;100581.22;5056675;28;20216;-65
2022/07/27 04:06:54;;;;;;;0.97;0.60;;;;;;;23.06;50.02;100582.03;5060463;28;20199;-65
2022/07/27 04:09:21;;;;;;;2.17;0.77;;;;;;;23.05;50.37;100580.38;5057366;28;20226;-65
2022/07/27 04:11:53;;;;;;;2.70;0.87;;;;;;;23.04;50.28;100577.94;5059148;28;20260;-65
2022/07/27 04:14:22;;;;;;;1.80;0.87;;;;;;;23.05;50.37;100585.78;5049595;28;20215;-65
2022/07/27 04:16:50;;;;;;;1.63;0.63;;;;;;;23.06;50.23;100586.63;5055598;28;20211;-65
2022/07/27 04:19:17;;;;;;;2.27;0.80;;;;;;;23.04;50.42;100578.75;5059449;28;20215;-65
2022/07/27 04:21:45;;;;;;;4.00;1.30;;;;;;;23.02;50.31;100580.03;5059902;28;20210;-65
2022/07/27 04:24:13;;;;;;;4.60;1.10;;;;;;;22.98;50.69;100585.06;5059780;28;20208;-65
2022/07/27 04:26:41;;;;;;;4.33;1.37;;;;;;;22.94;50.51;100578.47;5060352;28;20215;-65
2022/07/27 04:29:10;;;;;;;2.43;0.90;;;;;;;22.95;50.46;100577.41;5055854;28;20251;-65
2022/07/27 04:31:42;;;;;;;2.20;0.83;;;;;;;22.99;50.28;100575.06;5055592;28;20311;-65
2022/07/27 04:34:09;;;;;;;2.97;0.90;;;;;;;22.97;50.60;100577.16;5061631;28;20229;-65
2022/07/27 04:36:38;;;;;;;3.30;0.80;;;;;;;22.97;50.63;100577.16;5059670;28;20208;-65
2022/07/27 04:39:06;;;;;;;1.90;0.90;;;;;;;22.96;50.99;100578.22;5062399;28;20207;-65
2022/07/27 04:41:34;;;;;;;2.43;1.10;;;;;;;22.97;50.50;100577.16;5062140;28;20208;-65
2022/07/27 04:44:01;;;;;;;2.17;1.10;;;;;;;22.93;51.06;100581.38;5062643;28;20230;-66
2022/07/27 04:46:30;;;;;;;2.37;0.90;;;;;;;22.87;51.21;100575.00;5062215;28;20210;-65
2022/07/27 04:48:58;;;;;;;3.77;0.80;;;;;;;22.88;51.37;100582.06;5062380;28;20235;-66
2022/07/27 04:51:26;;;;;;;3.70;1.00;;;;;;;22.85;51.38;100586.06;5057487;28;20961;-65
2022/07/27 04:54:01;;;;;;;4.13;1.00;;;;;;;22.86;51.46;100582.31;5065836;28;20880;-65
2022/07/27 04:56:28;;;;;;;7.13;0.90;;;;;;;22.83;51.61;100590.03;5065158;28;20798;-65
2022/07/27 04:58:56;;;;;;;3.53;1.23;;;;;;;22.83;51.45;100588.16;5066481;28;20282;-65
2022/07/27 05:01:24;;;;;;;7.13;1.47;;;;;;;22.82;51.69;100589.19;5060642;28;20210;-65
2022/07/27 05:03:57;;;;;;;3.13;0.90;;;;;;;22.74;52.18;100589.50;5063129;28;20243;-65
2022/07/27 05:06:24;;;;;;;3.33;1.10;;;;;;;22.71;52.03;100589.06;5059413;28;20429;-65
2022/07/27 05:08:52;;;;;;;5.83;1.00;;;;;;;22.73;52.12;100593.22;5061097;28;20668;-66
2022/07/27 05:11:20;;;;;;;1.07;0.67;;;;;;;22.75;52.25;100599.25;5064174;28;20564;-65
2022/07/27 05:13:47;;;;;;;5.53;0.80;;;;;;;22.75;52.33;100593.84;5064640;28;20208;-65
2022/07/27 05:16:15;;;;;;;4.97;1.20;;;;;;;22.72;52.13;100596.13;5059658;28;20233;-63
2022/07/27 05:18:44;;;;;;;4.40;1.10;;;;;;;22.71;52.86;100606.13;5066846;28;20230;-64
2022/07/27 05:21:13;;;;;;;2.93;0.80;;;;;;;22.67;52.59;100604.94;5065284;28;20204;-63
2022/07/27 05:23:41;;;;;;;2.17;0.87;;;;;;;22.69;52.43;100608.22;5063636;28;20206;-63
2022/07/27 05:26:09;;;;;;;2.40;1.10;;;;;;;22.69;52.02;100615.53;5066236;28;20211;-63
2022/07/27 05:28:37;;;;;;;4.13;1.10;;;;;;;22.72;52.19;100612.34;5062522;28;20319;-63
2022/07/27 05:31:05;;;;;;;6.00;1.33;;;;;;;22.70;52.33;100609.88;5062211;28;20203;-63
2022/07/27 05:33:33;;;;;;;4.50;1.00;;;;;;;22.70;52.28;100614.44;5059250;28;20232;-63
2022/07/27 05:36:00;;;;;;;7.47;2.10;;;;;;;22.73;52.41;100619.41;5059502;28;20207;-63
2022/07/27 05:38:30;;;;;;;3.23;0.93;;;;;;;22.73;52.34;100625.66;5060964;28;20758;-63
2022/07/27 05:40:58;;;;;;;2.87;0.93;;;;;;;22.79;52.27;100622.06;5063261;28;20215;-63
2022/07/27 05:43:27;;;;;;;4.57;1.03;;;;;;;22.73;52.32;100624.81;5056409;28;20200;-64
2022/07/27 05:45:54;;;;;;;6.20;1.23;;;;;;;22.74;52.30;100627.34;5059084;28;20208;-63
2022/07/27 05:48:22;;;;;;;3.90;1.20;;;;;;;22.72;52.21;100637.50;5053244;28;20234;-64
2022/07/27 05:50:53;;;;;;;3.33;1.00;;;;;;;22.71;52.09;100641.25;5051806;28;20223;-63
2022/07/27 05:53:20;;;;;;;5.93;1.20;;;;;;;22.73;52.00;100647.28;5060585;28;20233;-63
2022/07/27 05:55:51;;;;;;;5.90;0.80;;;;;;;22.68;51.54;100652.53;5054380;28;20215;-63
2022/07/27 05:58:28;;;;;;;5.77;1.20;;;;;;;22.69;51.58;100651.47;5065603;28;20293;-63
2022/07/27 06:00:56;;;;;;;5.50;1.20;;;;;;;22.73;51.90;100651.84;5063042;28;20207;-63
2022/07/27 06:03:24;;;;;;;3.23;0.80;;;;;;;22.73;51.82;100649.97;5068699;28;20218;-64
2022/07/27 06:07:57;;;;;;;7.27;1.43;;;;;;;22.75;51.83;100650.63;5065077;28;20238;-62
2022/07/27 06:08:39;;;;;;;5.07;1.00;;;;;;;22.76;51.55;100652.28;5064255;28;20318;-63
2022/07/27 06:11:08;;;;;;;6.00;1.30;;;;;;;22.71;51.68;100646.66;5058057;28;20615;-63
2022/07/27 06:13:37;;;;;;;3.83;1.00;;;;;;;22.74;51.75;100648.97;5053940;28;20227;-63
2022/07/27 06:16:09;;;;;;;3.43;1.20;;;;;;;22.69;51.67;100645.25;5058203;28;20241;-63
2022/07/27 06:18:37;;;;;;;4.90;0.93;;;;;;;22.63;51.57;100649.66;5060320;28;20303;-64
2022/07/27 06:21:05;;;;;;;5.90;1.10;;;;;;;22.63;51.32;100657.78;5064245;28;21417;-66
2022/07/27 06:23:33;;;;;;;5.27;1.00;;;;;;;22.72;51.19;100656.44;5059953;28;20878;-66
2022/07/27 06:26:00;;;;;;;5.40;1.10;;;;;;;22.80;50.90;100655.34;5063598;28;20212;-66
2022/07/27 06:28:29;;;;;;;4.13;0.97;;;;;;;22.73;51.04;100657.25;5069373;28;20225;-66
2022/07/27 06:30:58;;;;;;;4.77;1.10;;;;;;;22.77;50.65;100659.34;5064964;28;20334;-65
2022/07/27 06:33:27;;;;;;;4.40;0.97;;;;;;;22.88;50.32;100658.59;5056601;28;20470;-63
2022/07/27 06:35:56;;;;;;;3.50;0.90;;;;;;;22.96;50.04;100656.63;5058964;28;20651;-62
2022/07/27 06:38:25;;;;;;;6.00;1.20;;;;;;;23.06;50.03;100656.94;5054487;28;20219;-63
2022/07/27 06:40:54;;;;;;;6.93;1.23;;;;;;;23.03;50.06;100652.00;5057446;28;20821;-63
2022/07/27 06:43:23;;;;;;;6.50;1.23;;;;;;;23.02;50.03;100656.59;5052721;28;20211;-67
2022/07/27 06:45:53;;;;;;;6.93;1.10;;;;;;;23.10;49.58;100650.03;5061284;28;20196;-66
2022/07/27 06:48:21;;;;;;;3.10;0.80;;;;;;;23.09;49.25;100656.50;5062855;28;20211;-67
2022/07/27 06:50:50;;;;;;;3.40;1.00;;;;;;;23.10;49.47;100660.88;5064767;28;20203;-67
2022/07/27 06:53:18;;;;;;;4.23;1.20;;;;;;;23.13;48.89;100660.41;5056384;28;20262;-67
2022/07/27 06:55:48;;;;;;;4.63;1.03;;;;;;;23.03;49.13;100665.53;5064641;28;20207;-66
2022/07/27 06:58:16;;;;;;;3.47;1.10;;;;;;;23.00;49.24;100665.97;5051198;28;20209;-66
2022/07/27 07:00:44;;;;;;;5.97;0.97;;;;;;;23.06;49.04;100662.34;5056087;28;20314;-66
2022/07/27 07:03:13;;;;;;;6.13;1.10;;;;;;;23.15;48.97;100667.25;5066098;28;20222;-67
2022/07/27 07:05:43;;;;;;;4.97;0.93;;;;;;;23.21;48.67;100665.53;5069835;28;20234;-66
2022/07/27 07:08:12;;;;;;;6.72;1.10;;;;;;;23.18;48.56;100663.25;5062408;28;20226;-66
2022/07/27 07:10:40;;;;;;;5.10;1.20;;;;;;;23.19;48.76;100656.81;5063907;28;21168;-66
2022/07/27 07:13:08;;;;;;;3.37;0.90;;;;;;;23.22;48.87;100667.16;5067177;28;20299;-66
2022/07/27 07:15:38;;;;;;;3.65;1.15;;;;;;;23.23;48.71;100666.09;5065348;28;20204;-67
2022/07/27 07:18:07;;;;;;;4.60;1.07;;;;;;;23.17;49.18;100667.00;5065026;28;20641;-65
2022/07/27 07:20:37;;;;;;;3.37;0.97;;;;;;;23.26;48.76;100662.97;5062957;28;20203;-66
2022/07/27 07:23:05;;;;;;;6.50;1.17;;;;;;;23.29;48.89;100669.81;5067506;28;20199;-66
2022/07/27 07:25:34;;;;;;;5.07;1.17;;;;;;;23.34;48.80;100668.06;5068804;28;20293;-65
2022/07/27 07:28:02;;;;;;;10.87;1.23;;;;;;;23.37;48.65;100669.50;5069234;28;20680;-64
2022/07/27 07:30:30;;;;;;;4.80;1.20;;;;;;;23.32;48.49;100666.63;5066967;28;20688;-64
2022/07/27 07:32:57;;;;;;;3.45;1.00;;;;;;;23.28;48.71;100668.97;5068744;28;20268;-64
2022/07/27 07:35:26;;;;;;;5.53;1.10;;;;;;;23.26;48.41;100666.50;5064113;28;20222;-64
2022/07/27 07:37:55;;;;;;;5.23;1.10;;;;;;;23.25;48.36;100666.72;5072689;28;20667;-65
2022/07/27 07:40:23;;;;;;;7.50;1.27;;;;;;;23.16;48.27;100673.47;5067261;28;20813;-65
2022/07/27 07:43:11;;;;;;;9.60;1.20;;;;;;;23.14;48.19;100659.34;5062343;28;20203;-65
2022/07/27 07:45:39;;;;;;;3.85;0.90;;;;;;;23.14;48.32;100660.16;5066429;28;20215;-65
2022/07/27 07:48:17;;;;;;;8.30;1.35;;;;;;;23.09;48.19;100664.63;5069445;28;20236;-65
2022/07/27 07:50:45;;;;;;;4.03;1.10;;;;;;;23.10;48.11;100663.56;5070830;28;20252;-65
2022/07/27 07:53:21;;;;;;;6.85;1.00;;;;;;;23.13;48.10;100668.53;5068326;28;20242;-65
2022/07/27 07:55:49;;;;;;;4.30;1.00;;;;;;;23.17;48.05;100667.00;5065660;28;20239;-63
2022/07/27 07:58:18;;;;;;;9.73;1.40;;;;;;;23.15;48.37;100672.66;5070015;28;20229;-63
2022/07/27 08:00:46;;;;;;;7.50;1.40;;;;;;;23.18;48.39;100671.38;5068193;28;20199;-63
2022/07/27 08:03:14;;;;;;;8.03;1.30;;;;;;;23.14;48.59;100671.00;5065453;28;20199;-62
2022/07/27 08:05:41;;;;;;;7.50;1.30;;;;;;;23.19;48.60;100678.44;5070345;28;20203;-64
2022/07/27 08:08:09;;;;;;;5.83;1.20;;;;;;;23.21;48.43;100681.75;5065766;28;20638;-63
2022/07/27 08:10:38;;;;;;;4.57;1.20;;;;;;;23.27;48.23;100686.25;5070364;28;20238;-63
2022/07/27 08:13:07;;;;;;;4.97;1.50;;;;;;;23.36;48.29;100684.91;5068922;28;20707;-63
2022/07/27 08:15:35;;;;;;;5.07;1.20;;;;;;;23.47;48.14;100686.03;5075206;28;20213;-63
2022/07/27 08:18:03;;;;;;;6.33;1.27;;;;;;;23.54;47.63;100684.91;5073610;28;20199;-64
2022/07/27 08:20:31;;;;;;;7.23;1.17;;;;;;;23.58;47.62;100687.97;5071354;28;20257;-63
2022/07/27 08:22:59;;;;;;;7.60;1.48;;;;;;;23.63;48.00;100691.66;5071344;28;20712;-66
2022/07/27 08:25:27;;;;;;;7.17;1.60;;;;;;;23.65;47.65;100696.03;5072290;28;20214;-64
2022/07/27 08:27:56;;;;;;;6.20;1.50;;;;;;;23.65;47.34;100698.75;5067298;28;20207;-65
2022/07/27 08:30:24;;;;;;;6.10;1.40;;;;;;;23.63;47.31;100697.09;5067769;28;20743;-65
2022/07/27 08:32:57;;;;;;;9.25;1.85;;;;;;;23.59;47.85;100690.47;5066644;28;20310;-65
2022/07/27 08:35:25;;;;;;;8.83;1.77;;;;;;;23.56;47.65;100690.09;5068604;28;20337;-66
2022/07/27 08:37:54;;;;;;;5.83;1.40;;;;;;;23.58;47.20;100691.50;5071846;28;20314;-66
2022/07/27 08:40:22;;;;;;;7.63;1.20;;;;;;;23.74;46.87;100690.06;5070032;28;20231;-66
2022/07/27 08:43:14;;;;;;;5.82;1.10;;;;;;;23.86;46.89;100676.56;5063319;28;20211;-67
2022/07/27 08:45:53;;;;;;;4.57;1.17;;;;;;;23.96;46.82;100680.38;5071334;28;20657;-66
2022/07/27 08:48:22;;;;;;;8.18;1.48;;;;;;;24.06;46.54;100690.66;5074540;28;20207;-67
2022/07/27 08:50:51;;;;;;;8.63;1.60;;;;;;;24.17;46.46;100681.72;5079243;28;20720;-66
2022/07/27 08:53:19;;;;;;;4.90;1.30;;;;;;;24.32;46.23;100689.44;5071422;28;20254;-66
2022/07/27 08:55:47;;;;;;;5.45;1.63;;;;;;;24.44;46.25;100689.47;5075615;28;20214;-67
2022/07/27 08:58:17;;;;;;;6.75;1.70;;;;;;;24.62;45.96;100679.34;5070408;28;20299;-66
2022/07/27 09:00:46;;;;;;;7.57;1.95;;;;;;;24.76;45.69;100677.22;5066821;28;20290;-67
2022/07/27 09:03:15;;;;;;;7.30;1.60;;;;;;;24.91;45.07;100680.31;5066167;28;20217;-66
2022/07/27 09:05:50;;;;;;;5.90;1.45;;;;;;;25.09;44.84;100674.75;5073483;28;20206;-66
2022/07/27 09:08:22;;;;;;;9.93;1.75;;;;;;;25.23;44.16;100674.50;5070222;28;20233;-67
2022/07/27 09:10:51;;;;;;;4.97;1.40;;;;;;;25.37;43.90;100673.16;5070870;28;20215;-67
2022/07/27 09:13:23;;;;;;;6.85;1.25;;;;;;;25.54;43.97;100675.94;5063967;28;20327;-67
2022/07/27 09:15:52;;;;;;;5.40;1.63;;;;;;;25.65;43.57;100675.94;5063934;28;20318;-67
2022/07/27 09:18:40;;;;;;;12.77;1.63;;;;;;;25.65;43.28;100686.78;5065308;28;20688;-67
2022/07/27 09:21:14;;;;;;;6.70;1.48;;;;;;;25.54;42.72;100681.34;5063474;28;20206;-67
2022/07/27 09:23:49;;;;;;;7.65;1.90;;;;;;;25.34;43.02;100676.34;5062316;28;20218;-67
2022/07/27 09:26:19;;;;;;;5.35;1.30;;;;;;;25.21;43.52;100679.34;5068030;28;20233;-67
2022/07/27 09:29:03;;;;;;;5.20;1.85;;;;;;;25.17;43.77;100683.56;5065772;28;20208;-67
2022/07/27 09:31:32;;;;;;;6.68;1.65;;;;;;;25.22;43.46;100678.28;5067367;28;20211;-67
2022/07/27 09:34:02;;;;;;;8.93;1.85;;;;;;;25.31;43.59;100684.97;5063583;28;21812;-67
2022/07/27 09:36:31;;;;;;;5.28;1.33;;;;;;;25.34;43.49;100681.75;5071544;28;20224;-68
2022/07/27 09:39:02;;;;;;;5.25;2.00;;;;;;;25.33;43.13;100682.84;5071453;28;20211;-68
2022/07/27 09:41:42;;;;;;;8.40;1.75;;;;;;;25.21;43.19;100682.03;5068296;28;20204;-64
2022/07/27 09:44:14;;;;;;;5.03;1.40;;;;;;;25.23;43.59;100679.94;5064839;28;20361;-64
2022/07/27 09:47:19;;;;;;;5.60;1.50;;;;;;;25.35;43.48;100688.84;5063917;28;21258;-64
2022/07/27 09:49:47;;;;;;;5.85;1.45;;;;;;;25.44;42.84;100684.69;5061146;28;20214;-64
2022/07/27 09:52:22;;;;;;;9.68;1.83;;;;;;;25.63;43.14;100672.63;5070607;28;20224;-64
2022/07/27 09:54:50;;;;;;;9.07;1.23;;;;;;;25.79;42.48;100685.41;5076716;28;20719;-64
2022/07/27 09:57:18;;;;;;;8.63;1.45;;;;;;;25.96;42.22;100687.34;5076417;28;20215;-65
2022/07/27 09:59:47;;;;;;;7.78;1.98;;;;;;;26.08;41.47;100683.50;5066914;28;20201;-63
2022/07/27 10:02:15;;;;;;;9.63;1.88;;;;;;;26.16;41.99;100679.56;5066723;28;20199;-64
2022/07/27 10:04:44;;;;;;;7.35;1.52;;;;;;;26.27;41.62;100686.88;5067021;28;20593;-65
2022/07/27 10:07:13;;;;;;;7.30;1.75;;;;;;;26.23;41.25;100685.66;5076994;28;20226;-64
2022/07/27 10:09:42;;;;;;;5.90;1.63;;;;;;;26.13;41.38;100685.47;5067032;28;20207;-64
2022/07/27 10:12:10;;;;;;;7.38;1.75;;;;;;;26.04;41.17;100684.22;5068131;28;20310;-65
2022/07/27 10:14:37;;;;;;;6.03;1.58;;;;;;;25.97;41.19;100689.00;5069278;28;20233;-66
2022/07/27 10:17:09;;;;;;;6.95;1.60;;;;;;;25.94;40.88;100684.06;5070833;28;20294;-64
2022/07/27 10:19:46;;;;;;;6.45;1.75;;;;;;;25.85;41.20;100683.66;5070273;28;20644;-63
2022/07/27 10:22:13;;;;;;;6.07;1.77;;;;;;;25.84;41.16;100690.16;5072119;28;20907;-63
2022/07/27 10:24:42;;;;;;;5.88;1.45;;;;;;;25.85;41.68;100691.78;5071259;28;20231;-63
2022/07/27 10:27:20;;;;;;;8.82;1.75;;;;;;;25.81;41.06;100694.16;5073920;28;20204;-64
2022/07/27 10:29:50;;;;;;;5.80;1.75;;;;;;;25.81;40.35;100694.16;5076003;28;20577;-64
2022/07/27 10:32:25;;;;;;;8.13;1.80;;;;;;;25.72;40.94;100690.19;5073728;28;20241;-64
2022/07/27 10:34:53;;;;;;;4.20;1.50;;;;;;;25.82;40.80;100686.84;5064238;28;20216;-63
2022/07/27 10:37:25;;;;;;;7.72;1.73;;;;;;;26.03;40.17;100694.31;5077521;28;20298;-64
2022/07/27 10:42:39;;;;;;;9.65;1.60;;;;;;;26.49;39.17;100678.78;5064334;28;20210;-64
2022/07/27 10:45:09;;;;;;;7.35;1.55;;;;;;;26.65;39.31;100677.16;5073317;28;20594;-64
2022/07/27 10:47:43;;;;;;;8.05;1.73;;;;;;;26.65;38.70;100685.31;5069657;28;20211;-63
2022/07/27 10:50:24;;;;;;;5.15;1.55;;;;;;;26.57;38.72;100690.06;5068165;28;20227;-63
2022/07/27 10:52:54;;;;;;;6.50;1.50;;;;;;;26.44;38.84;100687.69;5062114;28;20704;-64
2022/07/27 10:55:41;;;;;;;6.28;1.77;;;;;;;26.30;38.60;100683.63;5060735;28;20199;-63
2022/07/27 10:58:47;;;;;;;5.38;1.45;;;;;;;26.19;38.65;100689.97;5069282;28;20669;-63
2022/07/27 11:01:20;;;;;;;8.20;1.80;;;;;;;26.08;39.19;100683.50;5061851;28;20207;-63
2022/07/27 11:03:54;;;;;;;5.88;1.67;;;;;;;26.01;39.66;100676.59;5072496;28;20295;-62
2022/07/27 11:06:25;;;;;;;6.18;1.60;;;;;;;25.90;39.11;100681.00;5084492;28;20257;-65
2022/07/27 11:09:04;;;;;;;5.60;1.50;;;;;;;25.97;38.75;100683.56;5066328;28;20206;-66
2022/07/27 11:11:54;;;;;;;4.90;1.60;;;;;;;26.02;38.37;100678.25;5066960;28;20601;-63
2022/07/27 11:14:22;;;;;;;9.65;1.42;;;;;;;26.02;38.24;100675.53;5058104;28;20207;-65
2022/07/27 11:16:58;;;;;;;4.38;1.25;;;;;;;25.96;38.53;100671.03;5062769;28;20204;-66
2022/07/27 11:19:53;;;;;;;5.68;1.70;;;;;;;26.12;38.46;100667.56;5062746;28;20200;-66
2022/07/27 11:22:31;;;;;;;7.15;1.48;;;;;;;26.31;38.06;100668.97;5067219;28;20219;-69
2022/07/27 11:25:19;;;;;;;6.15;1.80;;;;;;;26.60;37.65;100656.94;5060018;28;20218;-63
2022/07/27 11:27:47;;;;;;;4.30;1.30;;;;;;;26.76;37.42;100668.03;5064233;28;20249;-64
2022/07/27 11:30:23;;;;;;;5.47;1.35;;;;;;;26.73;37.46;100654.97;5061772;28;20207;-64
2022/07/27 11:32:51;;;;;;;4.25;1.90;;;;;;;26.54;37.38;100660.66;5061523;28;20261;-63
2022/07/27 11:35:20;;;;;;;5.93;1.60;;;;;;;26.34;37.74;100662.22;5066417;28;20229;-63
2022/07/27 11:37:59;;;;;;;5.72;1.70;;;;;;;26.23;37.77;100658.47;5060883;28;20211;-63
2022/07/27 11:40:27;;;;;;;10.30;1.75;;;;;;;26.21;37.73;100663.38;5060064;28;20731;-64
2022/07/27 11:43:36;;;;;;;5.18;1.77;;;;;;;26.39;37.52;100657.69;5063511;28;20204;-63